createdAt,value
2019-04-14T00:02:27.225Z,100584.09
2019-04-14T00:05:08.277Z,100579.80
2019-04-14T00:07:41.103Z,100584.27
2019-04-14T00:10:16.052Z,100579.92
2019-04-14T00:12:51.439Z,100575.20
2019-04-14T00:15:47.051Z,100573.38
2019-04-14T00:18:35.875Z,100564.56
2019-04-14T00:21:09.038Z,100563.58
2019-04-14T00:23:45.602Z,100563.77
2019-04-14T00:26:31.562Z,100561.93
2019-04-14T00:29:08.865Z,100562.11
2019-04-14T00:32:09.435Z,100560.63
2019-04-14T00:35:04.414Z,100563.11
2019-04-14T00:38:01.232Z,100563.22
2019-04-14T00:41:09.699Z,100557.12
2019-04-14T00:43:50.914Z,100558.38
2019-04-14T00:46:49.598Z,100555.27
2019-04-14T00:49:24.716Z,100556.84
2019-04-14T00:51:59.307Z,100553.40
2019-04-14T00:54:34.427Z,100553.53
2019-04-14T00:57:07.353Z,100553.50
2019-04-14T00:59:42.763Z,100558.26
2019-04-14T01:02:18.911Z,100557.75
2019-04-14T01:04:53.391Z,100558.45
2019-04-14T01:07:41.299Z,100563.92
2019-04-14T01:10:14.881Z,100561.41
2019-04-14T01:12:49.600Z,100563.98
2019-04-14T01:15:22.284Z,100552.70
2019-04-14T01:17:55.537Z,100559.25
2019-04-14T01:20:30.109Z,100559.53
2019-04-14T01:23:02.661Z,100560.86
2019-04-14T01:25:35.394Z,100563.17
2019-04-14T01:28:09.011Z,100566.79
2019-04-14T01:30:43.706Z,100565.71
2019-04-14T01:33:18.475Z,100570.43
2019-04-14T01:35:53.074Z,100570.38
2019-04-14T01:38:25.731Z,100571.84
2019-04-14T01:40:59.910Z,100568.38
2019-04-14T01:43:34.190Z,100565.91
2019-04-14T01:46:14.758Z,100570.30
2019-04-14T01:48:51.891Z,100564.40
2019-04-14T01:51:35.986Z,100574.10
2019-04-14T01:54:19.235Z,100576.00
2019-04-14T01:57:13.210Z,100580.80
2019-04-14T01:59:46.703Z,100582.54
2019-04-14T02:02:22.683Z,100583.16
2019-04-14T02:04:55.407Z,100583.51
2019-04-14T02:07:29.748Z,100586.45
2019-04-14T02:10:03.910Z,100585.27
2019-04-14T02:12:36.624Z,100581.45
2019-04-14T02:15:11.276Z,100586.42
2019-04-14T02:17:46.107Z,100584.91
2019-04-14T02:20:18.871Z,100588.25
2019-04-14T02:22:51.567Z,100585.78
2019-04-14T02:25:25.315Z,100583.36
2019-04-14T02:28:00.128Z,100574.27
2019-04-14T02:30:41.572Z,100570.31
2019-04-14T02:33:44.459Z,100575.73
2019-04-14T02:37:04.717Z,100566.67
2019-04-14T02:40:33.386Z,100568.79
2019-04-14T02:47:14.903Z,100573.36
2019-04-14T02:50:38.613Z,100566.80
2019-04-14T02:53:59.376Z,100567.64
2019-04-14T03:00:23.907Z,100573.91
2019-04-14T03:03:41.356Z,100577.08
2019-04-14T03:06:50.161Z,100581.98
2019-04-14T03:10:20.638Z,100579.31
2019-04-14T03:13:28.828Z,100581.55
2019-04-14T03:17:11.123Z,100575.13
2019-04-14T03:20:47.517Z,100578.61
2019-04-14T03:24:21.739Z,100575.53
2019-04-14T03:27:41.890Z,100578.12
2019-04-14T03:37:39.513Z,100573.98
2019-04-14T03:40:54.219Z,100575.06
2019-04-14T03:44:28.569Z,100571.88
2019-04-14T03:47:56.259Z,100576.77
2019-04-14T03:51:42.102Z,100573.44
2019-04-14T03:54:44.120Z,100576.75
2019-04-14T03:57:31.196Z,100569.45
2019-04-14T04:00:09.501Z,100577.08
2019-04-14T04:02:44.449Z,100572.70
2019-04-14T04:05:17.385Z,100582.58
2019-04-14T04:07:50.242Z,100580.28
2019-04-14T04:10:27.061Z,100587.02
2019-04-14T04:12:59.764Z,100586.58
2019-04-14T04:15:34.264Z,100587.52
2019-04-14T04:18:15.547Z,100578.64
2019-04-14T04:20:54.486Z,100581.61
2019-04-14T04:23:35.634Z,100587.28
2019-04-14T04:26:17.422Z,100588.50
2019-04-14T04:28:59.059Z,100584.16
2019-04-14T04:31:37.487Z,100594.00
2019-04-14T04:34:32.358Z,100594.45
2019-04-14T04:37:13.102Z,100597.08
2019-04-14T04:39:48.112Z,100596.26
2019-04-14T04:42:20.471Z,100604.38
2019-04-14T04:44:53.345Z,100603.34
2019-04-14T04:47:25.842Z,100600.77
2019-04-14T04:50:00.050Z,100605.16
2019-04-14T04:52:36.528Z,100607.06
2019-04-14T04:55:09.476Z,100610.73
2019-04-14T04:57:46.015Z,100610.23
2019-04-14T05:00:20.482Z,100613.22
2019-04-14T05:02:53.601Z,100618.48
2019-04-14T05:05:49.257Z,100618.14
2019-04-14T05:08:24.061Z,100619.45
2019-04-14T05:11:05.844Z,100619.59
2019-04-14T05:13:40.250Z,100618.29
2019-04-14T05:16:12.850Z,100619.59
2019-04-14T05:18:46.819Z,100625.22
2019-04-14T05:21:19.345Z,100622.70
2019-04-14T05:23:51.858Z,100627.23
2019-04-14T05:26:28.743Z,100635.58
2019-04-14T05:29:03.492Z,100632.80
2019-04-14T05:31:44.653Z,100631.69
2019-04-14T05:34:21.568Z,100636.64
2019-04-14T05:36:56.378Z,100638.56
2019-04-14T05:39:29.101Z,100639.69
2019-04-14T05:42:12.085Z,100643.23
2019-04-14T05:44:51.518Z,100639.48
2019-04-14T05:47:26.219Z,100640.14
2019-04-14T05:49:59.423Z,100643.66
2019-04-14T05:52:32.056Z,100643.20
2019-04-14T05:55:06.625Z,100639.98
2019-04-14T05:57:41.706Z,100653.00
2019-04-14T06:00:19.068Z,100649.72
2019-04-14T06:02:52.722Z,100654.16
2019-04-14T06:05:28.242Z,100650.14
2019-04-14T06:08:01.857Z,100654.16
2019-04-14T06:10:34.887Z,100654.89
2019-04-14T06:13:07.828Z,100659.16
2019-04-14T06:15:41.020Z,100656.11
2019-04-14T06:18:13.639Z,100654.37
2019-04-14T06:20:46.611Z,100656.59
2019-04-14T06:23:22.326Z,100647.61
2019-04-14T06:25:54.790Z,100654.18
2019-04-14T06:28:28.202Z,100655.13
2019-04-14T06:31:12.461Z,100652.14
2019-04-14T06:33:55.219Z,100659.09
2019-04-14T06:36:33.507Z,100649.18
2019-04-14T06:39:12.529Z,100657.35
2019-04-14T06:41:45.094Z,100657.11
2019-04-14T06:44:17.722Z,100653.26
2019-04-14T06:46:51.046Z,100658.27
2019-04-14T06:49:23.913Z,100661.44
2019-04-14T06:51:56.467Z,100661.75
2019-04-14T06:54:29.463Z,100657.59
2019-04-14T06:57:14.285Z,100654.65
2019-04-14T06:59:52.178Z,100659.98
2019-04-14T07:02:26.580Z,100661.58
2019-04-14T07:05:04.303Z,100663.69
2019-04-14T07:07:37.027Z,100668.26
2019-04-14T07:10:09.722Z,100675.73
2019-04-14T07:12:43.546Z,100683.77
2019-04-14T07:15:17.111Z,100672.95
2019-04-14T07:17:49.842Z,100676.61
2019-04-14T07:20:22.707Z,100684.91
2019-04-14T07:22:55.299Z,100686.60
2019-04-14T07:25:27.987Z,100685.16
2019-04-14T07:28:00.775Z,100684.23
2019-04-14T07:30:39.436Z,100684.77
2019-04-14T07:33:27.659Z,100688.02
2019-04-14T07:36:30.344Z,100686.78
2019-04-14T07:39:11.715Z,100682.20
2019-04-14T07:41:51.800Z,100683.33
2019-04-14T07:44:46.161Z,100680.89
2019-04-14T07:47:25.772Z,100685.41
2019-04-14T07:50:18.350Z,100673.48
2019-04-14T07:52:59.982Z,100685.91
2019-04-14T07:55:40.291Z,100683.42
2019-04-14T07:58:18.280Z,100686.35
2019-04-14T08:01:10.210Z,100681.94
2019-04-14T08:03:50.006Z,100679.38
2019-04-14T08:06:23.543Z,100684.67
2019-04-14T08:08:57.030Z,100684.91
2019-04-14T08:11:29.643Z,100682.73
2019-04-14T08:14:05.287Z,100682.13
2019-04-14T08:16:38.659Z,100689.22
2019-04-14T08:19:11.239Z,100690.39
2019-04-14T08:21:44.457Z,100688.70
2019-04-14T08:24:18.227Z,100698.28
2019-04-14T08:26:50.937Z,100698.23
2019-04-14T08:29:28.062Z,100698.20
2019-04-14T08:32:04.259Z,100701.39
2019-04-14T08:34:36.834Z,100694.01
2019-04-14T08:37:13.798Z,100694.47
2019-04-14T08:39:48.414Z,100694.09
2019-04-14T08:42:52.699Z,100696.87
2019-04-14T08:45:56.639Z,100696.86
2019-04-14T08:49:01.965Z,100699.24
2019-04-14T08:52:02.769Z,100696.00
2019-04-14T08:54:46.843Z,100700.08
2019-04-14T08:57:43.035Z,100698.45
2019-04-14T09:00:27.877Z,100700.70
2019-04-14T09:03:22.114Z,100702.34
2019-04-14T09:06:05.385Z,100702.70
2019-04-14T09:08:45.150Z,100693.64
2019-04-14T09:11:32.837Z,100691.75
2019-04-14T09:14:06.479Z,100690.75
2019-04-14T09:16:39.620Z,100687.52
2019-04-14T09:19:17.595Z,100690.84
2019-04-14T09:21:52.134Z,100699.14
2019-04-14T09:24:25.696Z,100688.16
2019-04-14T09:27:02.128Z,100679.47
2019-04-14T09:29:35.034Z,100689.50
2019-04-14T09:32:12.951Z,100687.23
2019-04-14T09:34:46.755Z,100687.52
2019-04-14T09:37:20.848Z,100686.95
2019-04-14T09:39:54.932Z,100681.98
2019-04-14T09:42:27.585Z,100677.30
2019-04-14T09:45:02.557Z,100674.31
2019-04-14T09:47:36.037Z,100683.47
2019-04-14T09:50:09.340Z,100682.11
2019-04-14T09:52:42.164Z,100674.14
2019-04-14T09:55:17.475Z,100670.72
2019-04-14T09:57:51.086Z,100675.27
2019-04-14T10:00:23.844Z,100672.77
2019-04-14T10:02:57.331Z,100680.38
2019-04-14T10:05:30.931Z,100684.91
2019-04-14T10:08:07.046Z,100687.03
2019-04-14T10:10:41.977Z,100679.55
2019-04-14T10:13:15.065Z,100678.25
2019-04-14T10:15:48.283Z,100673.78
2019-04-14T10:18:22.162Z,100669.45
2019-04-14T10:20:54.710Z,100665.38
2019-04-14T10:23:29.054Z,100673.27
2019-04-14T10:26:01.915Z,100666.11
2019-04-14T10:28:34.534Z,100677.42
2019-04-14T10:31:07.134Z,100668.81
2019-04-14T10:33:40.813Z,100671.05
2019-04-14T10:36:13.403Z,100673.45
2019-04-14T10:38:47.011Z,100678.18
2019-04-14T10:41:19.975Z,100676.39
2019-04-14T10:43:53.594Z,100681.13
2019-04-14T10:46:27.046Z,100683.37
2019-04-14T10:49:00.153Z,100683.22
2019-04-14T10:51:37.587Z,100674.68
2019-04-14T10:54:10.615Z,100684.91
2019-04-14T10:56:43.686Z,100689.86
2019-04-14T10:59:18.973Z,100687.19
2019-04-14T11:01:52.137Z,100682.24
2019-04-14T11:04:26.369Z,100673.80
2019-04-14T11:07:07.068Z,100677.41
2019-04-14T11:09:43.240Z,100682.72
2019-04-14T11:12:19.971Z,100688.22
2019-04-14T11:14:52.686Z,100691.76
2019-04-14T11:17:26.304Z,100692.94
2019-04-14T11:20:01.991Z,100681.75
2019-04-14T11:22:37.061Z,100676.06
2019-04-14T11:25:09.711Z,100691.32
2019-04-14T11:27:43.269Z,100690.38
2019-04-14T11:30:19.964Z,100686.52
2019-04-14T11:33:04.514Z,100681.41
2019-04-14T11:35:49.655Z,100680.06
2019-04-14T11:38:36.041Z,100680.95
2019-04-14T11:41:19.352Z,100679.73
2019-04-14T11:43:52.864Z,100684.84
2019-04-14T11:46:27.664Z,100683.29
2019-04-14T11:49:02.752Z,100687.74
2019-04-14T11:51:37.631Z,100689.30
2019-04-14T11:54:13.624Z,100695.14
2019-04-14T11:56:46.838Z,100684.16
2019-04-14T11:59:31.124Z,100692.69
2019-04-14T12:02:19.610Z,100688.27
2019-04-14T12:05:07.137Z,100682.94
2019-04-14T12:07:50.080Z,100687.52
2019-04-14T12:10:26.616Z,100683.78
2019-04-14T12:13:07.256Z,100690.97
2019-04-14T12:15:47.414Z,100696.81
2019-04-14T12:18:27.532Z,100701.72
2019-04-14T12:21:00.153Z,100703.06
2019-04-14T12:23:39.045Z,100699.50
2019-04-14T12:26:14.652Z,100705.69
2019-04-14T12:28:49.349Z,100709.13
2019-04-14T12:31:24.103Z,100705.36
2019-04-14T12:34:11.724Z,100695.80
2019-04-14T12:36:51.418Z,100699.23
2019-04-14T12:39:30.064Z,100702.55
2019-04-14T12:42:38.002Z,100704.75
2019-04-14T12:45:21.312Z,100713.76
2019-04-14T12:48:02.196Z,100700.48
2019-04-14T12:50:46.190Z,100684.34
2019-04-14T12:53:19.216Z,100715.88
2019-04-14T12:55:53.845Z,100695.50
2019-04-14T12:58:38.928Z,100702.64
2019-04-14T13:01:13.082Z,100707.17
2019-04-14T13:03:46.202Z,100700.52
2019-04-14T13:06:20.467Z,100700.23
2019-04-14T13:08:53.676Z,100699.06
2019-04-14T13:11:32.163Z,100700.58
2019-04-14T13:14:11.912Z,100696.80
2019-04-14T13:16:48.842Z,100701.36
2019-04-14T13:19:30.426Z,100696.61
2019-04-14T13:22:03.155Z,100686.40
2019-04-14T13:24:40.659Z,100682.28
2019-04-14T13:27:14.370Z,100671.24
2019-04-14T13:29:55.495Z,100678.77
2019-04-14T13:32:35.987Z,100672.98
2019-04-14T13:35:10.744Z,100670.84
2019-04-14T13:37:47.834Z,100653.06
2019-04-14T13:40:21.899Z,100668.25
2019-04-14T13:42:54.437Z,100673.27
2019-04-14T13:45:35.822Z,100673.16
2019-04-14T13:48:34.477Z,100673.38
2019-04-14T13:51:15.934Z,100673.44
2019-04-14T13:53:51.091Z,100667.59
2019-04-14T13:56:25.294Z,100657.79
2019-04-14T13:58:59.929Z,100664.67
2019-04-14T14:01:34.560Z,100662.62
2019-04-14T14:04:08.919Z,100644.85
2019-04-14T14:06:41.768Z,100646.38
2019-04-14T14:09:14.790Z,100661.64
2019-04-14T14:12:00.736Z,100659.11
2019-04-14T14:14:50.835Z,100657.67
2019-04-14T14:17:39.841Z,100653.30
2019-04-14T14:20:27.262Z,100661.44
2019-04-14T14:23:31.836Z,100646.98
2019-04-14T14:26:30.750Z,100634.78
2019-04-14T14:29:05.870Z,100642.34
2019-04-14T14:31:39.606Z,100648.68
2019-04-14T14:34:20.545Z,100645.78
2019-04-14T14:36:55.544Z,100642.58
2019-04-14T14:39:35.547Z,100648.33
2019-04-14T14:42:12.438Z,100645.52
2019-04-14T14:45:19.683Z,100639.99
2019-04-14T14:48:11.133Z,100631.05
2019-04-14T14:50:52.449Z,100632.97
2019-04-14T14:53:34.026Z,100624.92
2019-04-14T14:56:30.445Z,100618.52
2019-04-14T14:59:03.656Z,100636.25
2019-04-14T15:01:39.228Z,100639.53
2019-04-14T15:04:15.772Z,100639.00
2019-04-14T15:06:50.115Z,100643.53
2019-04-14T15:09:26.609Z,100629.09
2019-04-14T15:12:00.988Z,100651.27
2019-04-14T15:14:36.425Z,100649.79
2019-04-14T15:17:15.766Z,100653.63
2019-04-14T15:19:50.692Z,100648.25
2019-04-14T15:22:24.169Z,100653.09
2019-04-14T15:24:59.193Z,100648.07
2019-04-14T15:27:36.670Z,100649.39
2019-04-14T15:30:15.898Z,100656.84
2019-04-14T15:32:55.070Z,100662.16
2019-04-14T15:35:30.199Z,100671.02
2019-04-14T15:38:06.034Z,100678.66
2019-04-14T15:40:39.120Z,100676.59
2019-04-14T15:43:15.808Z,100673.77
2019-04-14T15:45:54.289Z,100675.70
2019-04-14T15:48:39.636Z,100677.63
2019-04-14T15:51:33.360Z,100678.22
2019-04-14T15:54:11.629Z,100671.78
2019-04-14T15:56:53.242Z,100674.25
2019-04-14T15:59:40.919Z,100680.84
2019-04-14T16:02:39.456Z,100666.63
2019-04-14T16:05:35.642Z,100687.90
2019-04-14T16:08:24.755Z,100699.97
2019-04-14T16:11:03.515Z,100698.29
2019-04-14T16:13:45.662Z,100707.66
2019-04-14T16:16:41.452Z,100707.50
2019-04-14T16:19:27.295Z,100714.72
2019-04-14T16:22:01.646Z,100716.00
2019-04-14T16:24:56.665Z,100717.70
2019-04-14T16:27:39.605Z,100717.02
2019-04-14T16:30:29.190Z,100722.30
2019-04-14T16:33:10.856Z,100725.32
2019-04-14T16:35:46.742Z,100734.47
2019-04-14T16:38:21.245Z,100739.64
2019-04-14T16:40:55.878Z,100728.97
2019-04-14T16:43:29.379Z,100744.95
2019-04-14T16:46:02.719Z,100745.17
2019-04-14T16:48:44.546Z,100735.18
2019-04-14T16:51:24.117Z,100758.07
2019-04-14T16:54:03.325Z,100760.25
2019-04-14T16:56:50.280Z,100766.57
2019-04-14T16:59:22.977Z,100763.94
2019-04-14T17:02:10.170Z,100764.94
2019-04-14T17:04:45.540Z,100770.75
2019-04-14T17:07:19.837Z,100770.58
2019-04-14T17:09:53.724Z,100772.91
2019-04-14T17:12:27.073Z,100779.93
2019-04-14T17:15:15.957Z,100777.73
2019-04-14T17:17:56.550Z,100785.28
2019-04-14T17:20:37.259Z,100793.65
2019-04-14T17:23:30.986Z,100789.95
2019-04-14T17:26:09.781Z,100793.84
2019-04-14T17:29:02.599Z,100792.30
2019-04-14T17:31:56.347Z,100789.95
2019-04-14T17:35:03.038Z,100798.97
2019-04-14T17:38:00.648Z,100795.10
2019-04-14T17:40:54.509Z,100807.56
2019-04-14T17:43:35.610Z,100801.91
2019-04-14T17:46:29.060Z,100796.80
2019-04-14T17:49:18.656Z,100795.03
2019-04-14T17:52:14.991Z,100795.61
2019-04-14T17:54:54.076Z,100805.80
2019-04-14T17:57:48.456Z,100813.20
2019-04-14T18:00:43.932Z,100816.16
2019-04-14T18:03:27.505Z,100810.55
2019-04-14T18:06:08.842Z,100817.75
2019-04-14T18:09:00.797Z,100809.34
2019-04-14T18:11:56.703Z,100812.66
2019-04-14T18:14:45.625Z,100816.17
2019-04-14T18:17:28.511Z,100818.36
2019-04-14T18:20:09.450Z,100817.20
2019-04-14T18:22:42.050Z,100818.31
2019-04-14T18:25:18.187Z,100824.25
2019-04-14T18:28:10.329Z,100822.66
2019-04-14T18:31:01.377Z,100815.70
2019-04-14T18:33:42.448Z,100823.98
2019-04-14T18:36:34.450Z,100824.16
2019-04-14T18:39:34.567Z,100824.25
2019-04-14T18:42:28.164Z,100822.07
2019-04-14T18:45:20.895Z,100820.52
2019-04-14T18:48:03.366Z,100822.22
2019-04-14T18:50:42.957Z,100827.37
2019-04-14T18:53:24.836Z,100835.27
2019-04-14T18:56:11.560Z,100838.65
2019-04-14T18:58:58.081Z,100830.70
2019-04-14T19:01:38.219Z,100843.30
2019-04-14T19:04:10.833Z,100844.43
2019-04-14T19:06:43.797Z,100851.47
2019-04-14T19:09:18.393Z,100860.08
2019-04-14T19:12:13.294Z,100863.77
2019-04-14T19:15:06.765Z,100872.16
2019-04-14T19:17:49.779Z,100873.68
2019-04-14T19:20:31.686Z,100876.80
2019-04-14T19:23:06.148Z,100869.98
2019-04-14T19:25:39.452Z,100872.97
2019-04-14T19:28:12.375Z,100880.31
2019-04-14T19:30:45.354Z,100879.08
2019-04-14T19:33:18.361Z,100883.37
2019-04-14T19:35:55.332Z,100889.69
2019-04-14T19:38:31.505Z,100890.70
2019-04-14T19:41:05.452Z,100889.67
2019-04-14T19:43:46.486Z,100889.55
2019-04-14T19:46:20.636Z,100887.98
2019-04-14T19:48:54.800Z,100896.06
2019-04-14T19:51:34.347Z,100897.51
2019-04-14T19:54:08.381Z,100897.62
2019-04-14T19:56:42.664Z,100902.28
2019-04-14T19:59:21.203Z,100901.37
2019-04-14T20:01:57.943Z,100903.64
2019-04-14T20:04:34.954Z,100906.83
2019-04-14T20:07:08.078Z,100906.29
2019-04-14T20:09:41.284Z,100904.25
2019-04-14T20:12:14.922Z,100907.28
2019-04-14T20:14:47.807Z,100912.52
2019-04-14T20:17:40.873Z,100909.76
2019-04-14T20:20:24.454Z,100908.67
2019-04-14T20:23:19.003Z,100912.08
2019-04-14T20:26:24.692Z,100919.73
2019-04-14T20:29:05.092Z,100918.89
2019-04-14T20:31:51.867Z,100932.76
2019-04-14T20:34:25.429Z,100934.38
2019-04-14T20:36:59.252Z,100937.36
2019-04-14T20:39:33.529Z,100939.03
2019-04-14T20:42:07.375Z,100938.91
2019-04-14T20:44:40.387Z,100945.18
2019-04-14T20:47:13.128Z,100943.61
2019-04-14T20:49:45.800Z,100942.95
2019-04-14T20:52:18.772Z,100949.50
2019-04-14T20:54:51.523Z,100953.95
2019-04-14T20:57:24.146Z,100955.98
2019-04-14T21:00:01.120Z,100955.30
2019-04-14T21:02:56.158Z,100953.97
2019-04-14T21:05:52.829Z,100952.77
2019-04-14T21:08:55.183Z,100951.66
2019-04-14T21:11:35.351Z,100932.37
2019-04-14T21:14:17.492Z,100933.97
2019-04-14T21:17:03.482Z,100929.25
2019-04-14T21:19:47.565Z,100934.63
2019-04-14T21:22:34.791Z,100934.64
2019-04-14T21:25:28.044Z,100936.20
2019-04-14T21:28:28.068Z,100935.30
2019-04-14T21:31:08.633Z,100935.42
2019-04-14T21:33:56.512Z,100932.58
2019-04-14T21:36:37.342Z,100933.91
2019-04-14T21:39:31.833Z,100923.55
2019-04-14T21:42:19.567Z,100934.23
2019-04-14T21:44:53.915Z,100928.27
2019-04-14T21:47:30.970Z,100936.11
2019-04-14T21:50:07.390Z,100926.34
2019-04-14T21:52:43.691Z,100922.72
2019-04-14T21:55:22.040Z,100923.58
2019-04-14T21:58:03.834Z,100918.55
2019-04-14T22:01:40.815Z,100927.31
2019-04-14T22:04:32.031Z,100929.58
2019-04-14T22:07:19.863Z,100930.61
2019-04-14T22:09:56.750Z,100927.80
2019-04-14T22:12:35.742Z,100927.23
2019-04-14T22:15:08.543Z,100924.02
2019-04-14T22:17:45.365Z,100919.45
2019-04-14T22:20:17.966Z,100915.95
2019-04-14T22:22:50.672Z,100918.77
2019-04-14T22:25:24.213Z,100913.86
2019-04-14T22:27:56.926Z,100922.34
2019-04-14T22:30:29.836Z,100929.54
2019-04-14T22:33:03.703Z,100937.02
2019-04-14T22:35:37.682Z,100940.33
2019-04-14T22:38:10.766Z,100949.55
2019-04-14T22:40:43.721Z,100944.26
2019-04-14T22:43:17.715Z,100944.27
2019-04-14T22:45:50.434Z,100941.64
2019-04-14T22:48:23.291Z,100943.05
2019-04-14T22:50:55.963Z,100946.06
2019-04-14T22:53:29.187Z,100952.28
2019-04-14T22:56:02.299Z,100948.69
2019-04-14T22:58:34.819Z,100948.87
2019-04-14T23:01:19.266Z,100947.60
2019-04-14T23:04:12.483Z,100949.94
2019-04-14T23:07:06.155Z,100941.87
2019-04-14T23:09:53.418Z,100942.14
2019-04-14T23:12:31.562Z,100947.38
2019-04-14T23:15:25.739Z,100941.41
2019-04-14T23:18:22.828Z,100931.70
2019-04-14T23:21:16.887Z,100942.75
2019-04-14T23:24:10.746Z,100937.74
2019-04-14T23:26:52.385Z,100935.32
2019-04-14T23:29:25.873Z,100926.62
2019-04-14T23:31:58.783Z,100926.82
2019-04-14T23:34:31.997Z,100931.28
2019-04-14T23:37:05.407Z,100939.67
2019-04-14T23:39:38.264Z,100944.80
2019-04-14T23:42:10.853Z,100948.84
2019-04-14T23:44:46.600Z,100948.87
2019-04-14T23:47:19.422Z,100955.77
2019-04-14T23:49:52.011Z,100960.48
2019-04-14T23:52:25.973Z,100968.18
2019-04-14T23:54:59.020Z,100972.12
2019-04-14T23:57:32.003Z,100983.40
